sensor_id;sensor_type;location;lat;lon;timestamp;pressure;altitude;pressure_sealevel;temperature;humidity
31062;BME280;17724;53.546;9.974;2024-03-25T00:01:54;99968.22;;;8.35;91.85
31062;BME280;17724;53.546;9.974;2024-03-25T00:05:55;99981.19;;;8.45;91.17
31062;BME280;17724;53.546;9.974;2024-03-25T00:09:55;99984.81;;;8.51;90.36
31062;BME280;17724;53.546;9.974;2024-03-25T00:13:56;99988.97;;;8.58;90.60
31062;BME280;17724;53.546;9.974;2024-03-25T00:17:57;100003.31;;;8.76;89.55
31062;BME280;17724;53.546;9.974;2024-03-25T00:21:57;99999.94;;;8.58;89.50
31062;BME280;17724;53.546;9.974;2024-03-25T00:25:58;100002.38;;;8.55;89.46
31062;BME280;17724;53.546;9.974;2024-03-25T00:29:58;100011.81;;;8.74;87.64
31062;BME280;17724;53.546;9.974;2024-03-25T00:33:59;100008.28;;;8.42;87.31
31062;BME280;17724;53.546;9.974;2024-03-25T00:38:00;100023.72;;;8.53;87.17
31062;BME280;17724;53.546;9.974;2024-03-25T00:42:01;100009.78;;;8.59;88.40
31062;BME280;17724;53.546;9.974;2024-03-25T00:46:01;100025.19;;;8.33;90.52
31062;BME280;17724;53.546;9.974;2024-03-25T00:50:02;100030.16;;;8.36;92.70
31062;BME280;17724;53.546;9.974;2024-03-25T00:54:02;100036.69;;;8.30;93.63
31062;BME280;17724;53.546;9.974;2024-03-25T00:58:03;100027.81;;;8.18;94.22
31062;BME280;17724;53.546;9.974;2024-03-25T01:02:04;100046.16;;;8.18;94.85
31062;BME280;17724;53.546;9.974;2024-03-25T01:06:05;100032.22;;;8.19;94.61
31062;BME280;17724;53.546;9.974;2024-03-25T01:10:06;100051.59;;;8.45;94.68
31062;BME280;17724;53.546;9.974;2024-03-25T01:14:06;100044.81;;;8.52;94.92
31062;BME280;17724;53.546;9.974;2024-03-25T01:18:07;100063.19;;;8.52;94.61
31062;BME280;17724;53.546;9.974;2024-03-25T01:22:08;100064.31;;;8.29;95.88
31062;BME280;17724;53.546;9.974;2024-03-25T01:26:09;100047.75;;;8.41;95.41
31062;BME280;17724;53.546;9.974;2024-03-25T01:30:10;100053.03;;;8.52;95.40
31062;BME280;17724;53.546;9.974;2024-03-25T01:34:11;100067.53;;;8.48;95.09
31062;BME280;17724;53.546;9.974;2024-03-25T01:38:12;100059.03;;;8.49;95.09
31062;BME280;17724;53.546;9.974;2024-03-25T01:42:13;100064.91;;;8.31;95.76
31062;BME280;17724;53.546;9.974;2024-03-25T01:46:15;100068.31;;;8.43;96.63
31062;BME280;17724;53.546;9.974;2024-03-25T01:50:16;100066.63;;;8.74;96.26
31062;BME280;17724;53.546;9.974;2024-03-25T01:54:17;100065.25;;;8.77;95.69
31062;BME280;17724;53.546;9.974;2024-03-25T01:58:18;100074.28;;;8.72;94.89
31062;BME280;17724;53.546;9.974;2024-03-25T02:02:18;100091.31;;;8.74;94.81
31062;BME280;17724;53.546;9.974;2024-03-25T02:06:19;100083.72;;;8.86;94.50
31062;BME280;17724;53.546;9.974;2024-03-25T02:10:21;100084.09;;;8.63;94.29
31062;BME280;17724;53.546;9.974;2024-03-25T02:14:22;100106.81;;;8.58;94.96
31062;BME280;17724;53.546;9.974;2024-03-25T02:18:23;100107.16;;;8.67;95.70
31062;BME280;17724;53.546;9.974;2024-03-25T02:22:23;100110.56;;;8.47;96.69
31062;BME280;17724;53.546;9.974;2024-03-25T02:26:24;100104.75;;;8.76;96.95
31062;BME280;17724;53.546;9.974;2024-03-25T02:30:25;100109.44;;;8.80;96.19
31062;BME280;17724;53.546;9.974;2024-03-25T02:34:25;100118.06;;;8.62;95.80
31062;BME280;17724;53.546;9.974;2024-03-25T02:38:26;100122.44;;;8.95;95.36
31062;BME280;17724;53.546;9.974;2024-03-25T02:42:31;100090.00;;;8.87;94.22
31062;BME280;17724;53.546;9.974;2024-03-25T02:46:32;100128.44;;;8.92;93.17
31062;BME280;17724;53.546;9.974;2024-03-25T02:50:34;100131.47;;;8.96;92.77
31062;BME280;17724;53.546;9.974;2024-03-25T02:54:34;100132.97;;;8.76;92.47
31062;BME280;17724;53.546;9.974;2024-03-25T02:58:34;100131.44;;;8.91;92.18
31062;BME280;17724;53.546;9.974;2024-03-25T03:02:35;100133.28;;;8.80;92.01
31062;BME280;17724;53.546;9.974;2024-03-25T03:06:35;100142.66;;;8.89;91.40
31062;BME280;17724;53.546;9.974;2024-03-25T03:10:36;100145.31;;;9.16;90.50
31062;BME280;17724;53.546;9.974;2024-03-25T03:14:36;100155.34;;;9.00;89.72
31062;BME280;17724;53.546;9.974;2024-03-25T03:18:37;100162.88;;;9.15;89.83
31062;BME280;17724;53.546;9.974;2024-03-25T03:22:38;100181.22;;;8.45;90.82
31062;BME280;17724;53.546;9.974;2024-03-25T03:26:38;100182.81;;;8.68;90.87
31062;BME280;17724;53.546;9.974;2024-03-25T03:30:38;100200.50;;;8.55;91.18
31062;BME280;17724;53.546;9.974;2024-03-25T03:34:39;100188.97;;;8.26;90.87
31062;BME280;17724;53.546;9.974;2024-03-25T03:38:39;100210.97;;;8.36;90.79
31062;BME280;17724;53.546;9.974;2024-03-25T03:42:40;100220.78;;;8.54;90.57
31062;BME280;17724;53.546;9.974;2024-03-25T03:46:40;100214.41;;;8.49;90.13
31062;BME280;17724;53.546;9.974;2024-03-25T03:50:41;100223.75;;;8.04;91.07
31062;BME280;17724;53.546;9.974;2024-03-25T03:54:42;100232.00;;;8.53;90.68
31062;BME280;17724;53.546;9.974;2024-03-25T03:58:42;100229.19;;;8.75;89.07
31062;BME280;17724;53.546;9.974;2024-03-25T04:02:43;100230.38;;;8.84;88.46
31062;BME280;17724;53.546;9.974;2024-03-25T04:06:43;100243.63;;;8.97;87.32
31062;BME280;17724;53.546;9.974;2024-03-25T04:10:45;100252.97;;;8.69;86.98
31062;BME280;17724;53.546;9.974;2024-03-25T04:14:48;100259.22;;;8.92;86.41
31062;BME280;17724;53.546;9.974;2024-03-25T04:18:54;100263.75;;;8.76;85.31
31062;BME280;17724;53.546;9.974;2024-03-25T04:22:56;100263.69;;;8.71;85.64
31062;BME280;17724;53.546;9.974;2024-03-25T04:26:57;100269.75;;;8.73;85.44
31062;BME280;17724;53.546;9.974;2024-03-25T04:30:58;100274.56;;;8.60;85.53
31062;BME280;17724;53.546;9.974;2024-03-25T04:34:58;100288.84;;;8.41;85.74
31062;BME280;17724;53.546;9.974;2024-03-25T04:38:59;100285.13;;;8.74;85.62
31062;BME280;17724;53.546;9.974;2024-03-25T04:42:59;100291.50;;;8.84;85.38
31062;BME280;17724;53.546;9.974;2024-03-25T04:47:00;100300.13;;;8.66;86.20
31062;BME280;17724;53.546;9.974;2024-03-25T04:51:00;100293.13;;;8.80;85.95
31062;BME280;17724;53.546;9.974;2024-03-25T04:55:01;100297.88;;;8.63;86.85
31062;BME280;17724;53.546;9.974;2024-03-25T04:59:01;100310.53;;;8.69;87.90
31062;BME280;17724;53.546;9.974;2024-03-25T05:03:02;100309.94;;;8.89;86.98
31062;BME280;17724;53.546;9.974;2024-03-25T05:07:03;100314.34;;;8.63;87.84
31062;BME280;17724;53.546;9.974;2024-03-25T05:11:03;100324.00;;;8.71;88.20
31062;BME280;17724;53.546;9.974;2024-03-25T05:15:04;100314.75;;;8.33;88.51
31062;BME280;17724;53.546;9.974;2024-03-25T05:19:06;100318.75;;;8.42;89.94
31062;BME280;17724;53.546;9.974;2024-03-25T05:23:06;100300.91;;;8.39;88.42
31062;BME280;17724;53.546;9.974;2024-03-25T05:27:07;100319.53;;;8.21;88.62
31062;BME280;17724;53.546;9.974;2024-03-25T05:31:08;100325.72;;;8.33;89.55
31062;BME280;17724;53.546;9.974;2024-03-25T05:35:09;100326.97;;;8.42;89.18
31062;BME280;17724;53.546;9.974;2024-03-25T05:39:10;100337.16;;;8.47;89.05
31062;BME280;17724;53.546;9.974;2024-03-25T05:43:10;100347.72;;;8.60;88.90
31062;BME280;17724;53.546;9.974;2024-03-25T05:47:11;100342.34;;;8.43;87.56
31062;BME280;17724;53.546;9.974;2024-03-25T05:51:11;100348.00;;;8.58;86.77
31062;BME280;17724;53.546;9.974;2024-03-25T05:55:12;100343.38;;;8.64;87.09
31062;BME280;17724;53.546;9.974;2024-03-25T05:59:12;100357.28;;;8.57;86.61
31062;BME280;17724;53.546;9.974;2024-03-25T06:03:13;100357.09;;;8.64;87.61
31062;BME280;17724;53.546;9.974;2024-03-25T06:07:14;100350.88;;;8.47;86.88
31062;BME280;17724;53.546;9.974;2024-03-25T06:11:14;100363.03;;;8.78;87.36
31062;BME280;17724;53.546;9.974;2024-03-25T06:15:15;100356.59;;;8.67;87.44
31062;BME280;17724;53.546;9.974;2024-03-25T06:19:15;100362.59;;;8.25;88.86
31062;BME280;17724;53.546;9.974;2024-03-25T06:23:42;100370.31;;;8.28;89.44
31062;BME280;17724;53.546;9.974;2024-03-25T06:27:43;100372.09;;;8.18;90.53
31062;BME280;17724;53.546;9.974;2024-03-25T06:31:44;100372.72;;;8.42;90.28
31062;BME280;17724;53.546;9.974;2024-03-25T06:36:03;100390.50;;;8.39;91.43
31062;BME280;17724;53.546;9.974;2024-03-25T06:40:04;100389.50;;;8.28;91.67
31062;BME280;17724;53.546;9.974;2024-03-25T06:44:05;100398.13;;;8.37;90.89
31062;BME280;17724;53.546;9.974;2024-03-25T06:48:06;100397.91;;;8.38;91.94
31062;BME280;17724;53.546;9.974;2024-03-25T06:52:06;100408.13;;;8.26;91.63
31062;BME280;17724;53.546;9.974;2024-03-25T06:56:07;100414.16;;;8.28;91.98
31062;BME280;17724;53.546;9.974;2024-03-25T07:00:07;100418.41;;;8.19;93.53
31062;BME280;17724;53.546;9.974;2024-03-25T07:04:13;100415.25;;;8.27;93.46
31062;BME280;17724;53.546;9.974;2024-03-25T07:08:13;100420.13;;;8.25;94.09
31062;BME280;17724;53.546;9.974;2024-03-25T07:12:14;100433.00;;;8.85;93.52
31062;BME280;17724;53.546;9.974;2024-03-25T07:16:15;100435.50;;;8.87;90.57
31062;BME280;17724;53.546;9.974;2024-03-25T07:20:15;100442.47;;;8.73;89.54
31062;BME280;17724;53.546;9.974;2024-03-25T07:24:16;100446.34;;;8.55;89.89
31062;BME280;17724;53.546;9.974;2024-03-25T07:28:16;100451.88;;;8.60;92.06
31062;BME280;17724;53.546;9.974;2024-03-25T07:32:17;100448.88;;;8.61;92.01
31062;BME280;17724;53.546;9.974;2024-03-25T07:36:17;100455.16;;;8.79;92.57
31062;BME280;17724;53.546;9.974;2024-03-25T07:40:20;100455.94;;;8.74;91.16
31062;BME280;17724;53.546;9.974;2024-03-25T07:44:21;100464.25;;;8.84;91.24
31062;BME280;17724;53.546;9.974;2024-03-25T07:48:21;100460.94;;;9.26;91.14
31062;BME280;17724;53.546;9.974;2024-03-25T07:52:22;100456.31;;;9.32;91.44
31062;BME280;17724;53.546;9.974;2024-03-25T07:56:22;100465.56;;;8.99;91.57
31062;BME280;17724;53.546;9.974;2024-03-25T08:00:23;100470.69;;;8.73;93.26
31062;BME280;17724;53.546;9.974;2024-03-25T08:04:24;100473.72;;;8.94;93.88
31062;BME280;17724;53.546;9.974;2024-03-25T08:08:24;100480.66;;;8.79;95.23
31062;BME280;17724;53.546;9.974;2024-03-25T08:12:25;100471.66;;;8.84;94.75
31062;BME280;17724;53.546;9.974;2024-03-25T08:16:25;100470.78;;;10.14;95.10
31062;BME280;17724;53.546;9.974;2024-03-25T08:20:26;100489.44;;;10.96;82.95
31062;BME280;17724;53.546;9.974;2024-03-25T08:24:26;100491.72;;;11.09;82.00
31062;BME280;17724;53.546;9.974;2024-03-25T08:28:26;100493.72;;;11.40;79.40
31062;BME280;17724;53.546;9.974;2024-03-25T08:32:27;100493.19;;;11.48;77.78
31062;BME280;17724;53.546;9.974;2024-03-25T08:36:27;100489.22;;;11.08;79.41
31062;BME280;17724;53.546;9.974;2024-03-25T08:40:28;100487.28;;;10.14;82.13
31062;BME280;17724;53.546;9.974;2024-03-25T08:44:28;100490.34;;;9.58;82.45
31062;BME280;17724;53.546;9.974;2024-03-25T08:48:29;100483.31;;;10.36;82.62
31062;BME280;17724;53.546;9.974;2024-03-25T08:52:30;100494.06;;;11.74;75.45
31062;BME280;17724;53.546;9.974;2024-03-25T08:56:30;100498.56;;;11.12;76.17
31062;BME280;17724;53.546;9.974;2024-03-25T09:00:30;100513.50;;;11.21;76.69
31062;BME280;17724;53.546;9.974;2024-03-25T09:04:31;100509.00;;;10.20;73.58
31062;BME280;17724;53.546;9.974;2024-03-25T09:08:32;100516.72;;;9.86;73.87
31062;BME280;17724;53.546;9.974;2024-03-25T09:12:52;100525.19;;;10.49;73.64
31062;BME280;17724;53.546;9.974;2024-03-25T09:16:52;100521.28;;;10.40;72.05
31062;BME280;17724;53.546;9.974;2024-03-25T09:20:53;100524.53;;;10.31;71.97
31062;BME280;17724;53.546;9.974;2024-03-25T09:24:53;100518.34;;;10.51;73.10
31062;BME280;17724;53.546;9.974;2024-03-25T09:28:54;100521.38;;;10.50;72.89
31062;BME280;17724;53.546;9.974;2024-03-25T09:32:54;100526.63;;;10.56;72.83
31062;BME280;17724;53.546;9.974;2024-03-25T09:36:55;100522.94;;;10.83;71.02
31062;BME280;17724;53.546;9.974;2024-03-25T09:40:57;100509.13;;;10.73;71.55
31062;BME280;17724;53.546;9.974;2024-03-25T09:44:58;100516.44;;;12.39;69.53
31062;BME280;17724;53.546;9.974;2024-03-25T09:49:00;100530.03;;;13.25;59.44
31062;BME280;17724;53.546;9.974;2024-03-25T09:53:00;100519.19;;;12.39;61.03
31062;BME280;17724;53.546;9.974;2024-03-25T09:57:01;100516.72;;;12.27;60.59
31062;BME280;17724;53.546;9.974;2024-03-25T10:01:04;100520.00;;;11.05;63.83
31062;BME280;17724;53.546;9.974;2024-03-25T10:05:05;100541.16;;;10.94;68.73
31062;BME280;17724;53.546;9.974;2024-03-25T10:09:06;100547.06;;;10.66;72.13
31062;BME280;17724;53.546;9.974;2024-03-25T10:13:06;100531.06;;;10.57;71.69
31062;BME280;17724;53.546;9.974;2024-03-25T10:17:07;100529.78;;;10.75;71.45
31062;BME280;17724;53.546;9.974;2024-03-25T10:21:10;100528.75;;;10.44;71.72
31062;BME280;17724;53.546;9.974;2024-03-25T10:25:28;100525.75;;;10.93;73.23
31062;BME280;17724;53.546;9.974;2024-03-25T10:29:29;100533.13;;;11.45;71.28
31062;BME280;17724;53.546;9.974;2024-03-25T10:33:30;100533.53;;;12.05;66.33
31062;BME280;17724;53.546;9.974;2024-03-25T10:37:31;100535.19;;;12.42;64.99
31062;BME280;17724;53.546;9.974;2024-03-25T10:41:32;100536.28;;;12.15;64.62
31062;BME280;17724;53.546;9.974;2024-03-25T10:45:35;100532.97;;;12.23;63.38
31062;BME280;17724;53.546;9.974;2024-03-25T10:53:48;100540.00;;;11.43;64.13
31062;BME280;17724;53.546;9.974;2024-03-25T10:57:50;100534.56;;;11.73;60.75
31062;BME280;17724;53.546;9.974;2024-03-25T11:01:53;100537.75;;;10.77;62.99
31062;BME280;17724;53.546;9.974;2024-03-25T11:05:54;100526.75;;;10.34;62.81
31062;BME280;17724;53.546;9.974;2024-03-25T11:10:03;100528.69;;;10.34;64.03
31062;BME280;17724;53.546;9.974;2024-03-25T11:14:15;100543.09;;;10.94;63.25
31062;BME280;17724;53.546;9.974;2024-03-25T11:18:17;100544.91;;;11.41;62.14
31062;BME280;17724;53.546;9.974;2024-03-25T11:22:24;100538.28;;;11.26;59.44
31062;BME280;17724;53.546;9.974;2024-03-25T11:26:27;100536.41;;;10.84;60.62
31062;BME280;17724;53.546;9.974;2024-03-25T11:30:30;100542.16;;;11.30;59.39
31062;BME280;17724;53.546;9.974;2024-03-25T11:34:32;100538.91;;;11.49;60.80
31062;BME280;17724;53.546;9.974;2024-03-25T11:38:32;100531.25;;;11.76;58.90
31062;BME280;17724;53.546;9.974;2024-03-25T11:42:33;100522.44;;;11.69;58.01
31062;BME280;17724;53.546;9.974;2024-03-25T11:46:36;100532.97;;;11.98;57.97
31062;BME280;17724;53.546;9.974;2024-03-25T11:50:38;100538.75;;;12.12;56.29
31062;BME280;17724;53.546;9.974;2024-03-25T11:54:38;100533.00;;;12.18;56.75
31062;BME280;17724;53.546;9.974;2024-03-25T11:58:39;100529.38;;;11.92;57.20
31062;BME280;17724;53.546;9.974;2024-03-25T12:02:43;100519.47;;;12.37;56.17
31062;BME280;17724;53.546;9.974;2024-03-25T12:06:45;100513.66;;;12.44;56.58
31062;BME280;17724;53.546;9.974;2024-03-25T12:10:45;100524.44;;;12.15;55.94
31062;BME280;17724;53.546;9.974;2024-03-25T12:15:05;100537.66;;;12.13;57.62
31062;BME280;17724;53.546;9.974;2024-03-25T12:19:07;100512.03;;;12.17;55.81
31062;BME280;17724;53.546;9.974;2024-03-25T12:23:07;100524.97;;;11.91;56.92
31062;BME280;17724;53.546;9.974;2024-03-25T12:27:08;100518.66;;;12.01;56.07
31062;BME280;17724;53.546;9.974;2024-03-25T12:31:09;100515.97;;;11.28;59.84
31062;BME280;17724;53.546;9.974;2024-03-25T12:35:16;100509.38;;;10.66;64.83
31062;BME280;17724;53.546;9.974;2024-03-25T12:39:19;100517.59;;;11.14;63.45
31062;BME280;17724;53.546;9.974;2024-03-25T12:43:20;100521.78;;;11.31;61.04
31062;BME280;17724;53.546;9.974;2024-03-25T12:47:20;100507.81;;;11.58;63.32
31062;BME280;17724;53.546;9.974;2024-03-25T12:51:21;100509.00;;;11.93;61.79
31062;BME280;17724;53.546;9.974;2024-03-25T12:55:21;100508.34;;;11.60;59.76
31062;BME280;17724;53.546;9.974;2024-03-25T12:59:22;100499.56;;;11.58;59.77
31062;BME280;17724;53.546;9.974;2024-03-25T13:03:22;100500.91;;;11.51;60.55
31062;BME280;17724;53.546;9.974;2024-03-25T13:07:23;100492.13;;;11.79;60.02
31062;BME280;17724;53.546;9.974;2024-03-25T13:11:23;100495.78;;;11.90;58.67
31062;BME280;17724;53.546;9.974;2024-03-25T13:15:24;100507.63;;;12.01;58.27
31062;BME280;17724;53.546;9.974;2024-03-25T13:19:25;100494.13;;;11.89;58.31
31062;BME280;17724;53.546;9.974;2024-03-25T13:23:28;100499.34;;;11.91;59.57
31062;BME280;17724;53.546;9.974;2024-03-25T13:27:28;100505.66;;;11.81;58.56
31062;BME280;17724;53.546;9.974;2024-03-25T13:31:29;100486.88;;;11.63;58.28
31062;BME280;17724;53.546;9.974;2024-03-25T13:35:29;100503.22;;;12.05;63.38
31062;BME280;17724;53.546;9.974;2024-03-25T13:39:30;100477.81;;;12.28;61.25
31062;BME280;17724;53.546;9.974;2024-03-25T13:43:30;100476.75;;;12.19;61.67
31062;BME280;17724;53.546;9.974;2024-03-25T13:47:31;100497.97;;;12.19;61.80
31062;BME280;17724;53.546;9.974;2024-03-25T13:51:31;100502.38;;;12.35;60.83
31062;BME280;17724;53.546;9.974;2024-03-25T13:55:32;100496.03;;;12.35;60.55
31062;BME280;17724;53.546;9.974;2024-03-25T13:59:32;100489.69;;;12.19;59.62
31062;BME280;17724;53.546;9.974;2024-03-25T14:03:33;100470.09;;;12.36;58.86
31062;BME280;17724;53.546;9.974;2024-03-25T14:07:33;100485.28;;;12.07;58.10
31062;BME280;17724;53.546;9.974;2024-03-25T14:11:34;100481.13;;;12.36;58.96
31062;BME280;17724;53.546;9.974;2024-03-25T14:15:35;100482.22;;;12.50;57.24
31062;BME280;17724;53.546;9.974;2024-03-25T14:19:35;100478.66;;;12.39;57.77
31062;BME280;17724;53.546;9.974;2024-03-25T14:23:36;100469.53;;;12.44;57.91
31062;BME280;17724;53.546;9.974;2024-03-25T14:27:36;100466.19;;;12.62;58.42
31062;BME280;17724;53.546;9.974;2024-03-25T14:31:37;100464.03;;;12.28;56.77
31062;BME280;17724;53.546;9.974;2024-03-25T14:35:37;100473.69;;;12.46;56.57
31062;BME280;17724;53.546;9.974;2024-03-25T14:39:38;100461.78;;;12.61;57.33
31062;BME280;17724;53.546;9.974;2024-03-25T14:43:39;100467.88;;;12.32;57.54
31062;BME280;17724;53.546;9.974;2024-03-25T14:47:40;100462.66;;;12.36;59.38
31062;BME280;17724;53.546;9.974;2024-03-25T14:51:40;100463.22;;;12.23;57.94
31062;BME280;17724;53.546;9.974;2024-03-25T14:55:42;100450.00;;;11.99;58.06
31062;BME280;17724;53.546;9.974;2024-03-25T14:59:42;100458.00;;;12.21;56.54
31062;BME280;17724;53.546;9.974;2024-03-25T15:03:43;100441.44;;;12.31;56.97
31062;BME280;17724;53.546;9.974;2024-03-25T15:07:44;100447.75;;;12.47;57.79
31062;BME280;17724;53.546;9.974;2024-03-25T15:11:45;100447.13;;;12.61;55.83
31062;BME280;17724;53.546;9.974;2024-03-25T15:15:46;100452.69;;;12.55;55.68
31062;BME280;17724;53.546;9.974;2024-03-25T15:19:47;100447.91;;;12.81;55.99
31062;BME280;17724;53.546;9.974;2024-03-25T15:23:48;100440.22;;;12.73;53.63
31062;BME280;17724;53.546;9.974;2024-03-25T15:27:48;100436.88;;;12.81;54.83
31062;BME280;17724;53.546;9.974;2024-03-25T15:31:49;100439.97;;;12.70;53.50
31062;BME280;17724;53.546;9.974;2024-03-25T15:35:50;100432.25;;;12.67;53.97
31062;BME280;17724;53.546;9.974;2024-03-25T15:39:50;100430.06;;;12.58;53.50
31062;BME280;17724;53.546;9.974;2024-03-25T15:43:53;100422.06;;;12.57;53.82
31062;BME280;17724;53.546;9.974;2024-03-25T15:47:54;100433.69;;;12.44;52.42
31062;BME280;17724;53.546;9.974;2024-03-25T15:51:54;100434.84;;;12.12;52.07
31062;BME280;17724;53.546;9.974;2024-03-25T15:55:55;100422.94;;;12.32;53.56
31062;BME280;17724;53.546;9.974;2024-03-25T15:59:56;100425.44;;;12.33;53.44
31062;BME280;17724;53.546;9.974;2024-03-25T16:03:56;100432.03;;;12.53;53.60
31062;BME280;17724;53.546;9.974;2024-03-25T16:07:58;100427.84;;;12.61;53.49
31062;BME280;17724;53.546;9.974;2024-03-25T16:11:59;100431.16;;;12.52;53.05
31062;BME280;17724;53.546;9.974;2024-03-25T16:16:04;100432.56;;;12.55;52.63
31062;BME280;17724;53.546;9.974;2024-03-25T16:20:06;100428.41;;;12.52;53.13
31062;BME280;17724;53.546;9.974;2024-03-25T16:24:07;100421.56;;;12.40;52.25
31062;BME280;17724;53.546;9.974;2024-03-25T16:28:09;100441.38;;;12.52;52.23
31062;BME280;17724;53.546;9.974;2024-03-25T16:32:10;100440.00;;;12.54;53.20
31062;BME280;17724;53.546;9.974;2024-03-25T16:36:10;100433.69;;;12.44;52.16
31062;BME280;17724;53.546;9.974;2024-03-25T16:40:11;100431.72;;;12.54;52.99
31062;BME280;17724;53.546;9.974;2024-03-25T16:44:11;100421.56;;;12.40;52.81
31062;BME280;17724;53.546;9.974;2024-03-25T16:48:13;100417.97;;;12.39;52.89
31062;BME280;17724;53.546;9.974;2024-03-25T16:52:14;100417.75;;;12.25;51.13
31062;BME280;17724;53.546;9.974;2024-03-25T16:56:14;100403.97;;;12.25;52.63
31062;BME280;17724;53.546;9.974;2024-03-25T17:00:15;100402.28;;;12.24;53.01
31062;BME280;17724;53.546;9.974;2024-03-25T17:04:16;100412.50;;;12.19;53.39
31062;BME280;17724;53.546;9.974;2024-03-25T17:08:17;100397.06;;;12.13;53.10
31062;BME280;17724;53.546;9.974;2024-03-25T17:12:17;100414.16;;;12.15;52.24
31062;BME280;17724;53.546;9.974;2024-03-25T17:16:18;100408.41;;;12.06;53.71
31062;BME280;17724;53.546;9.974;2024-03-25T17:20:18;100406.75;;;11.95;53.93
31062;BME280;17724;53.546;9.974;2024-03-25T17:24:19;100413.91;;;11.96;54.53
31062;BME280;17724;53.546;9.974;2024-03-25T17:28:19;100405.09;;;11.89;55.18
31062;BME280;17724;53.546;9.974;2024-03-25T17:32:20;100410.63;;;11.99;54.76
31062;BME280;17724;53.546;9.974;2024-03-25T17:36:21;100406.47;;;11.96;56.43
31062;BME280;17724;53.546;9.974;2024-03-25T17:40:22;100415.84;;;12.00;57.14
31062;BME280;17724;53.546;9.974;2024-03-25T17:44:22;100411.44;;;11.94;54.71
31062;BME280;17724;53.546;9.974;2024-03-25T17:48:23;100405.66;;;11.86;55.48
31062;BME280;17724;53.546;9.974;2024-03-25T17:52:23;100403.44;;;11.82;56.03
31062;BME280;17724;53.546;9.974;2024-03-25T17:56:24;100408.66;;;11.69;55.83
31062;BME280;17724;53.546;9.974;2024-03-25T18:00:24;100411.69;;;11.67;56.78
31062;BME280;17724;53.546;9.974;2024-03-25T18:04:25;100407.84;;;11.63;56.87
31062;BME280;17724;53.546;9.974;2024-03-25T18:08:25;100412.25;;;11.79;60.03
31062;BME280;17724;53.546;9.974;2024-03-25T18:12:26;100412.25;;;11.84;56.97
31062;BME280;17724;53.546;9.974;2024-03-25T18:16:27;100402.34;;;11.58;56.39
31062;BME280;17724;53.546;9.974;2024-03-25T18:20:28;100411.16;;;11.65;55.78
31062;BME280;17724;53.546;9.974;2024-03-25T18:24:28;100408.91;;;11.52;56.61
31062;BME280;17724;53.546;9.974;2024-03-25T18:28:28;100403.72;;;11.45;56.76
31062;BME280;17724;53.546;9.974;2024-03-25T18:32:30;100402.06;;;11.49;57.88
31062;BME280;17724;53.546;9.974;2024-03-25T18:36:30;100404.53;;;11.56;59.68
31062;BME280;17724;53.546;9.974;2024-03-25T18:40:32;100405.91;;;11.38;56.26
31062;BME280;17724;53.546;9.974;2024-03-25T18:44:33;100409.75;;;11.68;56.81
31062;BME280;17724;53.546;9.974;2024-03-25T18:48:33;100401.22;;;11.54;59.44
31062;BME280;17724;53.546;9.974;2024-03-25T18:52:34;100399.00;;;11.56;58.42
31062;BME280;17724;53.546;9.974;2024-03-25T18:56:34;100394.06;;;11.43;58.72
31062;BME280;17724;53.546;9.974;2024-03-25T19:00:35;100398.44;;;11.28;61.00
31062;BME280;17724;53.546;9.974;2024-03-25T19:04:36;100400.91;;;11.20;61.29
31062;BME280;17724;53.546;9.974;2024-03-25T19:08:37;100398.72;;;11.22;61.03
31062;BME280;17724;53.546;9.974;2024-03-25T19:12:38;100395.41;;;11.20;60.47
31062;BME280;17724;53.546;9.974;2024-03-25T19:16:39;100394.81;;;11.07;60.45
31062;BME280;17724;53.546;9.974;2024-03-25T19:20:39;100404.50;;;11.25;61.94
31062;BME280;17724;53.546;9.974;2024-03-25T19:24:41;100401.75;;;11.25;59.97
31062;BME280;17724;53.546;9.974;2024-03-25T19:28:41;100401.19;;;11.23;60.23
31062;BME280;17724;53.546;9.974;2024-03-25T19:32:42;100395.34;;;10.99;61.42
31062;BME280;17724;53.546;9.974;2024-03-25T19:36:42;100396.75;;;11.02;62.08
31062;BME280;17724;53.546;9.974;2024-03-25T19:40:43;100400.59;;;11.06;59.04
31062;BME280;17724;53.546;9.974;2024-03-25T19:44:46;100400.03;;;10.94;61.35
31062;BME280;17724;53.546;9.974;2024-03-25T19:48:47;100405.75;;;10.87;60.95
31062;BME280;17724;53.546;9.974;2024-03-25T19:52:47;100400.78;;;10.79;61.51
31062;BME280;17724;53.546;9.974;2024-03-25T19:56:48;100413.19;;;10.87;62.28
31062;BME280;17724;53.546;9.974;2024-03-25T20:00:49;100410.69;;;10.85;61.79
31062;BME280;17724;53.546;9.974;2024-03-25T20:04:49;100417.81;;;10.71;61.94
31062;BME280;17724;53.546;9.974;2024-03-25T20:08:50;100412.28;;;10.66;62.58
31062;BME280;17724;53.546;9.974;2024-03-25T20:12:51;100403.72;;;10.57;61.78
31062;BME280;17724;53.546;9.974;2024-03-25T20:16:51;100409.50;;;10.55;62.00
31062;BME280;17724;53.546;9.974;2024-03-25T20:20:52;100407.84;;;10.59;62.35
31062;BME280;17724;53.546;9.974;2024-03-25T20:24:52;100402.88;;;10.51;62.82
31062;BME280;17724;53.546;9.974;2024-03-25T20:28:53;100405.63;;;10.51;63.16
31062;BME280;17724;53.546;9.974;2024-03-25T20:32:53;100409.75;;;10.54;62.16
31062;BME280;17724;53.546;9.974;2024-03-25T20:36:54;100411.91;;;10.42;63.93
31062;BME280;17724;53.546;9.974;2024-03-25T20:40:54;100405.00;;;10.39;64.10
31062;BME280;17724;53.546;9.974;2024-03-25T20:44:55;100407.75;;;10.39;63.64
31062;BME280;17724;53.546;9.974;2024-03-25T20:48:55;100413.25;;;10.39;63.57
31062;BME280;17724;53.546;9.974;2024-03-25T20:52:55;100407.75;;;10.39;64.13
31062;BME280;17724;53.546;9.974;2024-03-25T20:56:56;100409.69;;;10.44;62.76
31062;BME280;17724;53.546;9.974;2024-03-25T21:00:57;100395.91;;;10.33;63.57
31062;BME280;17724;53.546;9.974;2024-03-25T21:04:57;100397.75;;;10.23;64.22
31062;BME280;17724;53.546;9.974;2024-03-25T21:08:58;100405.72;;;10.24;63.83
31062;BME280;17724;53.546;9.974;2024-03-25T21:12:58;100406.50;;;10.20;63.51